KBKL METAR and TAF | Updated Today

KBKL METAR

Burke Lakefront Airport

Observation time: 3 min. ago

KBKL 061953Z 34006KT 10SM OVC019 01/M04 A3027 RMK AO2 SLP257 T00061039

Need help? Read our tutorial on how to read METARs or read the parsed version below.

Burke Lakefront Airport (KBKL) METAR

  • Weather conditions on Mon, 06 Feb 2023 19:53:00 +0000 (3 min. ago):
  • Present conditions: Dry
  • Clouds: Overcast sky at 579 meters
  • Visibility: 16093 meters
  • Wind: 340 degrees at 6 knots
  • Temperature: 1 celsius
  • Dew point: -4 celsius
  • Pressure: 30.27 inHg
  • Remarks: AO2 SLP257 T00061039


Useful to know...